createdAt,value
2017-09-03T00:00:56.685Z,90.90
2017-09-03T00:03:24.404Z,90.60
2017-09-03T00:05:52.119Z,90.50
2017-09-03T00:08:19.838Z,90.40
2017-09-03T00:10:47.552Z,89.70
2017-09-03T00:13:15.271Z,88.80
2017-09-03T00:15:42.988Z,88.90
2017-09-03T00:18:10.706Z,88.80
2017-09-03T00:20:38.427Z,88.60
2017-09-03T00:23:06.191Z,88.40
2017-09-03T00:25:33.916Z,88.60
2017-09-03T00:28:01.638Z,87.90
2017-09-03T00:30:29.370Z,88.30
2017-09-03T00:32:57.108Z,89.40
2017-09-03T00:35:24.854Z,88.90
2017-09-03T00:37:52.587Z,88.20
2017-09-03T00:40:20.315Z,87.60
2017-09-03T00:42:48.054Z,87.80
2017-09-03T00:45:15.819Z,87.70
2017-09-03T00:47:43.542Z,87.60
2017-09-03T00:50:11.303Z,87.30
2017-09-03T00:52:39.066Z,87.70
2017-09-03T00:55:06.852Z,90.00
2017-09-03T00:57:34.583Z,90.00
2017-09-03T01:00:02.318Z,89.30
2017-09-03T01:02:30.066Z,90.10
2017-09-03T01:04:57.786Z,90.10
2017-09-03T01:07:25.547Z,90.00
2017-09-03T01:09:54.223Z,89.10
2017-09-03T01:12:21.971Z,87.90
2017-09-03T01:14:49.738Z,87.90
2017-09-03T01:17:17.455Z,87.60
2017-09-03T01:19:45.203Z,87.80
2017-09-03T01:22:12.951Z,88.40
2017-09-03T01:24:40.656Z,88.40
2017-09-03T01:27:08.362Z,88.30
2017-09-03T01:29:36.077Z,88.20
2017-09-03T01:32:03.778Z,88.00
2017-09-03T01:34:31.518Z,87.90
2017-09-03T01:36:59.226Z,87.90
2017-09-03T01:39:27.058Z,87.50
2017-09-03T01:41:54.757Z,88.00
2017-09-03T01:44:22.463Z,88.00
2017-09-03T01:46:50.169Z,88.70
2017-09-03T01:49:17.904Z,88.70
2017-09-03T01:51:45.614Z,88.40
2017-09-03T01:54:13.322Z,89.00
2017-09-03T01:56:41.026Z,89.50
2017-09-03T01:59:08.744Z,90.00
2017-09-03T02:01:36.459Z,89.80
2017-09-03T02:04:04.208Z,90.00
2017-09-03T02:06:32.699Z,90.80
2017-09-03T02:09:00.417Z,90.80
2017-09-03T02:11:28.139Z,91.60
2017-09-03T02:13:55.853Z,92.00
2017-09-03T02:16:23.574Z,91.30
2017-09-03T02:18:51.295Z,90.20
2017-09-03T02:21:19.027Z,89.20
2017-09-03T02:23:46.734Z,88.60
2017-09-03T02:26:14.454Z,88.00
2017-09-03T02:28:42.165Z,89.20
2017-09-03T02:31:09.912Z,88.60
2017-09-03T02:33:37.647Z,88.60
2017-09-03T02:36:05.386Z,88.50
2017-09-03T02:38:33.102Z,88.30
2017-09-03T02:41:00.826Z,88.60
2017-09-03T02:43:28.537Z,88.90
2017-09-03T02:45:56.256Z,89.50
2017-09-03T02:48:23.986Z,90.50
2017-09-03T02:50:52.475Z,91.20
2017-09-03T02:53:20.195Z,91.20
2017-09-03T02:55:47.919Z,91.30
2017-09-03T02:58:15.634Z,91.50
2017-09-03T03:00:43.348Z,91.50
2017-09-03T03:03:11.058Z,91.40
2017-09-03T03:05:38.766Z,91.10
2017-09-03T03:08:06.473Z,90.70
2017-09-03T03:10:34.336Z,90.70
2017-09-03T03:13:02.202Z,90.60
2017-09-03T03:15:30.064Z,90.20
2017-09-03T03:17:57.937Z,90.00
2017-09-03T03:20:25.734Z,90.10
2017-09-03T03:22:53.456Z,90.00
2017-09-03T03:25:21.182Z,90.00
2017-09-03T03:27:48.903Z,90.00
2017-09-03T03:30:16.621Z,89.60
2017-09-03T03:32:44.335Z,89.70
2017-09-03T03:35:12.071Z,89.50
2017-09-03T03:37:39.777Z,89.60
2017-09-03T03:40:07.482Z,89.70
2017-09-03T03:42:35.203Z,90.00
2017-09-03T03:45:02.906Z,90.00
2017-09-03T03:47:30.622Z,89.70
2017-09-03T03:49:58.347Z,89.80
2017-09-03T03:52:26.069Z,89.90
2017-09-03T03:54:53.784Z,90.00
2017-09-03T03:57:21.498Z,89.70
2017-09-03T03:59:49.218Z,89.70
2017-09-03T04:02:16.942Z,90.00
2017-09-03T04:04:44.671Z,90.00
2017-09-03T04:07:12.397Z,90.30
2017-09-03T04:09:40.123Z,90.70
2017-09-03T04:12:07.852Z,90.80
2017-09-03T04:14:35.566Z,90.80
2017-09-03T04:17:03.283Z,91.10
2017-09-03T04:19:30.995Z,91.10
2017-09-03T04:21:58.800Z,91.20
2017-09-03T04:24:26.668Z,92.50
2017-09-03T04:27:00.322Z,92.40
2017-09-03T04:29:28.048Z,92.20
2017-09-03T04:31:55.758Z,91.70
2017-09-03T04:34:23.479Z,91.50
2017-09-03T04:36:51.198Z,91.20
2017-09-03T04:39:18.926Z,92.00
2017-09-03T04:41:47.421Z,92.70
2017-09-03T04:44:15.134Z,92.70
2017-09-03T04:46:42.853Z,92.90
2017-09-03T04:49:10.568Z,92.30
2017-09-03T04:51:38.301Z,91.80
2017-09-03T04:54:06.018Z,91.70
2017-09-03T04:56:33.757Z,91.80
2017-09-03T04:59:01.488Z,91.20
2017-09-03T05:01:29.263Z,91.30
2017-09-03T05:03:56.987Z,91.70
2017-09-03T05:06:24.722Z,91.50
2017-09-03T05:08:52.456Z,91.30
2017-09-03T05:11:20.178Z,91.90
2017-09-03T05:13:48.007Z,91.60
2017-09-03T05:16:15.875Z,91.00
2017-09-03T05:18:43.742Z,91.10
2017-09-03T05:21:11.610Z,90.60
2017-09-03T05:23:39.330Z,90.40
2017-09-03T05:26:07.102Z,90.10
2017-09-03T05:28:34.828Z,90.00
2017-09-03T05:31:02.558Z,90.10
2017-09-03T05:33:30.310Z,90.60
2017-09-03T05:35:58.043Z,90.90
2017-09-03T05:38:25.784Z,91.10
2017-09-03T05:40:53.527Z,91.00
2017-09-03T05:43:21.254Z,90.80
2017-09-03T05:45:48.974Z,90.70
2017-09-03T05:48:16.702Z,90.40
2017-09-03T05:50:44.450Z,90.50
2017-09-03T05:53:12.182Z,90.50
2017-09-03T05:55:39.914Z,90.60
2017-09-03T05:58:07.668Z,90.60
2017-09-03T06:00:35.475Z,91.00
2017-09-03T06:03:03.207Z,91.10
2017-09-03T06:05:31.069Z,90.80
2017-09-03T06:07:59.039Z,90.80
2017-09-03T06:10:26.766Z,90.70
2017-09-03T06:12:54.498Z,90.60
2017-09-03T06:15:22.231Z,90.90
2017-09-03T06:17:49.961Z,90.20
2017-09-03T06:20:17.687Z,90.20
2017-09-03T06:22:45.420Z,89.80
2017-09-03T06:25:13.174Z,88.50
2017-09-03T06:27:40.917Z,89.30
2017-09-03T06:30:12.128Z,88.80
2017-09-03T06:32:43.607Z,88.40
2017-09-03T06:35:15.038Z,88.30
2017-09-03T06:37:46.063Z,87.70
2017-09-03T06:40:17.564Z,85.70
2017-09-03T06:42:50.213Z,84.40
2017-09-03T06:45:23.431Z,79.00
2017-09-03T06:47:55.830Z,79.00
2017-09-03T06:50:28.221Z,76.80
2017-09-03T06:53:00.595Z,73.00
2017-09-03T06:55:32.834Z,71.90
2017-09-03T06:58:03.989Z,69.20
2017-09-03T07:00:34.931Z,67.40
2017-09-03T07:03:05.233Z,66.40
2017-09-03T07:05:36.201Z,66.10
2017-09-03T07:08:06.730Z,65.00
2017-09-03T07:10:37.240Z,64.10
2017-09-03T07:13:08.352Z,65.80
2017-09-03T07:15:39.980Z,64.10
2017-09-03T07:18:10.882Z,62.40
2017-09-03T07:20:41.545Z,60.40
2017-09-03T07:23:13.858Z,60.90
2017-09-03T07:25:46.736Z,60.50
2017-09-03T07:28:18.282Z,62.00
2017-09-03T07:30:50.258Z,61.10
2017-09-03T07:33:24.702Z,62.60
2017-09-03T07:35:55.140Z,61.40
2017-09-03T07:38:25.859Z,61.00
2017-09-03T07:40:56.224Z,62.00
2017-09-03T07:43:26.663Z,64.70
2017-09-03T07:45:57.242Z,65.30
2017-09-03T07:48:25.867Z,66.50
2017-09-03T07:50:53.741Z,66.90
2017-09-03T07:53:22.009Z,69.20
2017-09-03T07:55:49.877Z,68.50
2017-09-03T07:58:17.746Z,70.00
2017-09-03T08:00:45.613Z,70.00
2017-09-03T08:03:13.478Z,71.00
2017-09-03T08:05:41.345Z,71.60
2017-09-03T08:08:09.212Z,72.50
2017-09-03T08:10:37.077Z,72.90
2017-09-03T08:13:04.943Z,73.80
2017-09-03T08:15:32.744Z,74.90
2017-09-03T08:18:00.574Z,77.40
2017-09-03T08:20:28.443Z,77.50
2017-09-03T08:22:56.306Z,79.10
2017-09-03T08:25:24.178Z,80.60
2017-09-03T08:27:52.045Z,82.40
2017-09-03T08:30:19.912Z,83.20
2017-09-03T08:32:47.780Z,82.50
2017-09-03T08:35:15.579Z,82.50
2017-09-03T08:37:43.411Z,82.60
2017-09-03T08:40:11.284Z,82.80
2017-09-03T08:42:39.146Z,82.30
2017-09-03T08:45:07.009Z,82.80
2017-09-03T08:47:34.880Z,82.70
2017-09-03T08:50:02.748Z,83.50
2017-09-03T08:52:30.616Z,84.00
2017-09-03T08:54:58.482Z,84.00
2017-09-03T08:57:26.350Z,82.10
2017-09-03T08:59:54.217Z,80.20
2017-09-03T09:02:22.086Z,79.70
2017-09-03T09:04:49.952Z,79.10
2017-09-03T09:07:17.746Z,79.40
2017-09-03T09:09:45.587Z,80.70
2017-09-03T09:12:13.450Z,80.70
2017-09-03T09:14:41.318Z,79.50
2017-09-03T09:17:11.376Z,80.20
2017-09-03T09:19:45.113Z,81.00
2017-09-03T09:22:16.002Z,81.30
2017-09-03T09:24:47.215Z,81.80
2017-09-03T09:27:17.219Z,81.20
2017-09-03T09:29:46.819Z,82.10
2017-09-03T09:32:16.660Z,80.40
2017-09-03T09:34:46.648Z,79.40
2017-09-03T09:37:14.447Z,78.10
2017-09-03T09:39:43.948Z,80.50
2017-09-03T09:42:11.821Z,78.40
2017-09-03T09:44:39.689Z,78.80
2017-09-03T09:47:07.661Z,78.60
2017-09-03T09:49:35.524Z,74.50
2017-09-03T09:52:03.392Z,74.40
2017-09-03T09:54:31.260Z,73.80
2017-09-03T09:56:59.774Z,74.50
2017-09-03T09:59:27.812Z,73.40
2017-09-03T10:01:55.682Z,72.70
2017-09-03T10:04:23.548Z,71.50
2017-09-03T10:06:56.254Z,71.20
2017-09-03T10:09:26.014Z,69.90
2017-09-03T10:11:53.743Z,70.40
2017-09-03T10:14:21.674Z,71.70
2017-09-03T10:16:49.471Z,67.50
2017-09-03T10:19:17.305Z,66.40
2017-09-03T10:21:45.173Z,67.20
2017-09-03T10:24:13.039Z,66.20
2017-09-03T10:26:40.907Z,67.40
2017-09-03T10:29:08.774Z,67.10
2017-09-03T10:31:36.641Z,68.50
2017-09-03T10:34:04.508Z,64.20
2017-09-03T10:36:32.377Z,67.30
2017-09-03T10:39:00.248Z,66.10
2017-09-03T10:41:28.111Z,67.00
2017-09-03T10:43:55.978Z,63.90
2017-09-03T10:46:23.694Z,66.70
2017-09-03T10:48:51.405Z,66.10
2017-09-03T10:51:19.273Z,65.80
2017-09-03T10:53:47.141Z,63.00
2017-09-03T10:56:15.009Z,65.10
2017-09-03T10:58:42.977Z,63.90
2017-09-03T11:01:10.747Z,63.60
2017-09-03T11:03:38.542Z,63.20
2017-09-03T11:06:06.379Z,63.70
2017-09-03T11:08:34.246Z,64.50
2017-09-03T11:11:02.114Z,64.10
2017-09-03T11:13:29.927Z,63.10
2017-09-03T11:15:57.743Z,60.80
2017-09-03T11:18:25.611Z,60.00
2017-09-03T11:20:53.479Z,58.70
2017-09-03T11:23:21.343Z,58.90
2017-09-03T11:25:49.211Z,56.20
2017-09-03T11:28:17.077Z,58.80
2017-09-03T11:30:44.945Z,56.30
2017-09-03T11:33:12.813Z,58.40
2017-09-03T11:35:40.683Z,56.60
2017-09-03T11:38:08.547Z,54.40
2017-09-03T11:40:36.415Z,54.20
2017-09-03T11:43:04.282Z,50.30
2017-09-03T11:45:32.149Z,51.00
2017-09-03T11:48:00.016Z,52.70
2017-09-03T11:50:27.885Z,52.20
2017-09-03T11:52:55.752Z,51.00
2017-09-03T11:55:23.619Z,52.50
2017-09-03T11:57:51.486Z,51.80
2017-09-03T12:00:20.137Z,53.10
2017-09-03T12:02:47.866Z,51.40
2017-09-03T12:05:16.382Z,52.40
2017-09-03T12:07:44.107Z,52.40
2017-09-03T12:10:11.843Z,52.60
2017-09-03T12:12:39.566Z,50.20
2017-09-03T12:15:07.299Z,51.80
2017-09-03T12:17:35.039Z,49.20
2017-09-03T12:20:02.775Z,51.70
2017-09-03T12:22:30.506Z,46.30
2017-09-03T12:24:58.233Z,52.50
2017-09-03T12:27:25.959Z,52.90
2017-09-03T12:29:53.694Z,52.90
2017-09-03T12:32:21.424Z,50.90
2017-09-03T12:34:49.158Z,50.00
2017-09-03T12:37:16.903Z,47.70
2017-09-03T12:39:44.636Z,43.00
2017-09-03T12:42:12.376Z,45.70
2017-09-03T12:44:40.112Z,44.40
2017-09-03T12:47:07.859Z,44.60
2017-09-03T12:49:35.592Z,43.60
2017-09-03T12:52:03.367Z,44.60
2017-09-03T12:54:31.102Z,47.70
2017-09-03T12:56:58.835Z,45.60
2017-09-03T12:59:26.546Z,45.90
2017-09-03T13:01:54.260Z,44.70
2017-09-03T13:04:21.990Z,45.70
2017-09-03T13:06:49.714Z,44.70
2017-09-03T13:09:17.417Z,44.20
2017-09-03T13:11:45.135Z,40.70
2017-09-03T13:14:12.853Z,41.50
2017-09-03T13:16:40.572Z,41.80
2017-09-03T13:19:08.285Z,43.90
2017-09-03T13:21:35.989Z,42.20
2017-09-03T13:24:03.750Z,42.70
2017-09-03T13:26:31.498Z,42.90
2017-09-03T13:28:59.217Z,44.20
2017-09-03T13:31:26.922Z,43.20
2017-09-03T13:33:54.680Z,41.30
2017-09-03T13:36:22.387Z,41.70
2017-09-03T13:38:50.117Z,41.70
2017-09-03T13:41:17.827Z,44.30
2017-09-03T13:43:45.542Z,47.30
2017-09-03T13:46:13.264Z,44.50
2017-09-03T13:48:40.975Z,43.10
2017-09-03T13:51:08.722Z,44.00
2017-09-03T13:53:36.458Z,43.10
2017-09-03T13:56:04.223Z,43.30
2017-09-03T13:58:31.934Z,44.10
2017-09-03T14:00:59.647Z,42.80
2017-09-03T14:03:27.383Z,45.10
2017-09-03T14:05:55.094Z,44.50
2017-09-03T14:08:22.811Z,47.90
2017-09-03T14:10:50.527Z,46.40
2017-09-03T14:13:18.252Z,43.60
2017-09-03T14:15:45.959Z,43.10
2017-09-03T14:18:13.684Z,43.50
2017-09-03T14:20:41.407Z,41.20
2017-09-03T14:23:09.127Z,41.80
2017-09-03T14:25:36.845Z,45.80
2017-09-03T14:28:04.571Z,45.50
2017-09-03T14:30:32.294Z,42.40
2017-09-03T14:32:59.996Z,41.00
2017-09-03T14:35:27.707Z,42.50
2017-09-03T14:37:55.422Z,42.90
2017-09-03T14:40:23.139Z,42.70
2017-09-03T14:42:50.846Z,44.50
2017-09-03T14:45:18.555Z,45.90
2017-09-03T14:47:46.307Z,45.10
2017-09-03T14:50:14.014Z,45.40
2017-09-03T14:52:41.784Z,44.20
2017-09-03T14:55:09.513Z,43.20
2017-09-03T14:57:37.298Z,44.00
2017-09-03T15:00:05.023Z,44.00
2017-09-03T15:02:32.757Z,46.30
2017-09-03T15:05:00.589Z,45.20
2017-09-03T15:07:28.356Z,44.00
2017-09-03T15:09:56.225Z,43.80
2017-09-03T15:12:23.978Z,44.30
2017-09-03T15:14:51.896Z,44.40
2017-09-03T15:17:19.635Z,42.70
2017-09-03T15:19:48.007Z,41.30
2017-09-03T15:22:16.023Z,41.80
2017-09-03T15:24:43.786Z,41.00
2017-09-03T15:27:11.518Z,44.00
2017-09-03T15:29:39.255Z,43.90
2017-09-03T15:32:07.014Z,44.60
2017-09-03T15:34:34.748Z,42.10
2017-09-03T15:37:03.043Z,42.20
2017-09-03T15:39:30.777Z,42.60
2017-09-03T15:41:58.511Z,44.60
2017-09-03T15:44:26.235Z,46.50
2017-09-03T15:46:54.008Z,45.10
2017-09-03T15:49:21.822Z,42.10
2017-09-03T15:51:49.543Z,42.50
2017-09-03T15:54:17.329Z,41.80
2017-09-03T15:56:45.111Z,44.10
2017-09-03T15:59:12.842Z,42.10
2017-09-03T16:01:40.749Z,43.10
2017-09-03T16:04:08.805Z,42.70
2017-09-03T16:06:37.443Z,42.90
2017-09-03T16:09:05.230Z,43.10
2017-09-03T16:11:32.942Z,42.10
2017-09-03T16:14:00.663Z,45.30
2017-09-03T16:16:28.395Z,42.40
2017-09-03T16:18:56.121Z,44.40
2017-09-03T16:21:23.838Z,46.20
2017-09-03T16:23:51.565Z,44.10
2017-09-03T16:26:19.304Z,44.20
2017-09-03T16:28:47.031Z,44.40
2017-09-03T16:31:14.775Z,44.90
2017-09-03T16:33:42.510Z,45.60
2017-09-03T16:36:10.282Z,43.60
2017-09-03T16:38:38.818Z,44.50
2017-09-03T16:41:06.550Z,44.40
2017-09-03T16:43:34.279Z,46.60
2017-09-03T16:46:02.023Z,44.00
2017-09-03T16:48:29.793Z,46.10
2017-09-03T16:50:57.586Z,47.50
2017-09-03T16:53:25.354Z,49.10
2017-09-03T16:55:53.131Z,47.40
2017-09-03T16:58:20.909Z,47.20
2017-09-03T17:00:48.670Z,46.60
2017-09-03T17:03:16.443Z,46.90
2017-09-03T17:05:44.230Z,47.50
2017-09-03T17:08:12.020Z,49.50
2017-09-03T17:10:39.802Z,48.90
2017-09-03T17:13:07.815Z,50.40
2017-09-03T17:15:35.716Z,50.30
2017-09-03T17:18:03.584Z,51.20
2017-09-03T17:20:34.113Z,50.10
2017-09-03T17:23:01.980Z,52.40
2017-09-03T17:25:29.848Z,52.20
2017-09-03T17:27:57.713Z,53.50
2017-09-03T17:30:29.010Z,56.20
2017-09-03T17:33:00.045Z,56.00
2017-09-03T17:35:35.575Z,59.10
2017-09-03T17:38:19.121Z,63.70
2017-09-03T17:40:55.169Z,64.10
2017-09-03T17:43:29.297Z,66.80
2017-09-03T17:46:02.369Z,66.80
2017-09-03T17:48:35.228Z,67.70
2017-09-03T17:51:07.992Z,68.20
2017-09-03T17:53:41.004Z,68.90
2017-09-03T17:56:12.615Z,69.00
2017-09-03T17:58:44.104Z,69.20
2017-09-03T18:01:15.118Z,70.50
2017-09-03T18:03:46.182Z,70.30
2017-09-03T18:06:17.404Z,71.30
2017-09-03T18:08:49.111Z,70.10
2017-09-03T18:11:21.363Z,70.10
2017-09-03T18:13:55.308Z,71.40
2017-09-03T18:16:26.780Z,72.50
2017-09-03T18:18:58.100Z,72.20
2017-09-03T18:21:30.764Z,73.00
2017-09-03T18:24:03.908Z,75.40
2017-09-03T18:26:34.676Z,74.70
2017-09-03T18:29:06.590Z,75.10
2017-09-03T18:31:38.271Z,75.70
2017-09-03T18:34:09.367Z,77.60
2017-09-03T18:36:40.757Z,77.60
2017-09-03T18:39:17.056Z,76.80
2017-09-03T18:41:47.753Z,76.40
2017-09-03T18:44:19.785Z,78.80
2017-09-03T18:46:51.806Z,77.20
2017-09-03T18:49:22.548Z,76.40
2017-09-03T18:52:08.785Z,76.90
2017-09-03T18:54:42.071Z,77.30
2017-09-03T18:57:14.339Z,77.10
2017-09-03T18:59:52.761Z,76.80
2017-09-03T19:02:27.742Z,78.40
2017-09-03T19:05:01.777Z,78.30
2017-09-03T19:07:35.084Z,79.00
2017-09-03T19:10:08.205Z,79.90
2017-09-03T19:12:40.889Z,79.80
2017-09-03T19:15:12.397Z,79.00
2017-09-03T19:17:43.249Z,79.10
2017-09-03T19:20:14.002Z,79.20
2017-09-03T19:22:46.600Z,79.40
2017-09-03T19:25:18.596Z,79.10
2017-09-03T19:27:50.623Z,79.60
2017-09-03T19:30:23.319Z,80.80
2017-09-03T19:32:55.450Z,80.70
2017-09-03T19:35:28.417Z,80.70
2017-09-03T19:38:03.072Z,80.50
2017-09-03T19:40:36.014Z,81.10
2017-09-03T19:43:09.178Z,83.40
2017-09-03T19:45:42.266Z,84.10
2017-09-03T19:48:15.503Z,85.30
2017-09-03T19:50:48.406Z,84.30
2017-09-03T19:53:21.085Z,86.60
2017-09-03T19:55:53.140Z,85.30
2017-09-03T19:58:20.866Z,85.30
2017-09-03T20:00:48.573Z,85.30
2017-09-03T20:03:16.425Z,84.40
2017-09-03T20:05:44.293Z,82.70
2017-09-03T20:08:12.160Z,82.20
2017-09-03T20:10:39.872Z,82.30
2017-09-03T20:13:07.582Z,82.20
2017-09-03T20:15:35.352Z,81.70
2017-09-03T20:18:03.253Z,81.10
2017-09-03T20:20:31.087Z,80.80
2017-09-03T20:22:58.790Z,81.00
2017-09-03T20:25:26.495Z,81.10
2017-09-03T20:27:54.198Z,81.20
2017-09-03T20:30:22.044Z,82.00
2017-09-03T20:32:49.750Z,82.80
2017-09-03T20:35:17.574Z,84.10
2017-09-03T20:37:45.282Z,84.00
2017-09-03T20:40:12.991Z,83.10
2017-09-03T20:42:40.869Z,83.00
2017-09-03T20:45:08.740Z,82.20
2017-09-03T20:47:36.449Z,82.00
2017-09-03T20:50:04.267Z,81.50
2017-09-03T20:52:32.063Z,81.40
2017-09-03T20:54:59.903Z,81.60
2017-09-03T20:57:27.771Z,83.30
2017-09-03T20:59:55.634Z,83.10
2017-09-03T21:02:23.502Z,82.00
2017-09-03T21:04:51.368Z,82.00
2017-09-03T21:07:19.234Z,82.50
2017-09-03T21:09:46.959Z,82.30
2017-09-03T21:12:14.765Z,82.90
2017-09-03T21:14:42.631Z,82.80
2017-09-03T21:17:10.499Z,82.50
2017-09-03T21:19:38.365Z,83.60
2017-09-03T21:22:06.233Z,85.20
2017-09-03T21:24:34.100Z,85.90
2017-09-03T21:27:01.818Z,86.00
2017-09-03T21:29:29.630Z,84.40
2017-09-03T21:31:57.497Z,83.50
2017-09-03T21:34:25.365Z,82.70
2017-09-03T21:36:53.233Z,82.40
2017-09-03T21:39:21.105Z,82.60
2017-09-03T21:41:48.966Z,83.10
2017-09-03T21:44:16.834Z,82.80
2017-09-03T21:46:44.702Z,82.70
2017-09-03T21:49:12.574Z,82.90
2017-09-03T21:51:40.439Z,82.50
2017-09-03T21:54:08.159Z,83.30
2017-09-03T21:56:35.884Z,83.40
2017-09-03T21:59:03.732Z,83.30
2017-09-03T22:01:31.526Z,83.80
2017-09-03T22:03:59.362Z,83.20
2017-09-03T22:06:27.079Z,82.80
2017-09-03T22:08:54.791Z,83.20
2017-09-03T22:11:22.657Z,85.40
2017-09-03T22:13:50.524Z,86.20
2017-09-03T22:16:18.392Z,86.60
2017-09-03T22:18:46.258Z,86.80
2017-09-03T22:21:14.126Z,87.70
2017-09-03T22:23:41.992Z,88.90
2017-09-03T22:26:09.861Z,88.90
2017-09-03T22:28:37.728Z,90.00
2017-09-03T22:31:05.596Z,90.70
2017-09-03T22:33:33.462Z,89.60
2017-09-03T22:36:01.330Z,90.40
2017-09-03T22:38:29.200Z,90.60
2017-09-03T22:40:57.065Z,90.70
2017-09-03T22:43:24.931Z,89.40
2017-09-03T22:45:52.799Z,88.80
2017-09-03T22:48:20.510Z,87.70
2017-09-03T22:50:48.330Z,88.00
2017-09-03T22:53:16.087Z,87.90
2017-09-03T22:55:43.860Z,87.20
2017-09-03T22:58:11.726Z,86.60
2017-09-03T23:00:39.593Z,86.10
2017-09-03T23:03:07.558Z,86.10
2017-09-03T23:05:35.435Z,86.40
2017-09-03T23:08:03.297Z,86.00
2017-09-03T23:10:31.035Z,86.40
2017-09-03T23:12:58.930Z,85.90
2017-09-03T23:15:26.797Z,85.50
2017-09-03T23:17:54.563Z,84.70
2017-09-03T23:20:22.337Z,85.30
2017-09-03T23:22:50.194Z,85.80
2017-09-03T23:25:18.061Z,85.40
2017-09-03T23:27:45.936Z,84.80
2017-09-03T23:30:13.658Z,84.20
2017-09-03T23:32:41.459Z,84.30
2017-09-03T23:35:09.177Z,84.70
2017-09-03T23:37:36.917Z,85.70
2017-09-03T23:40:04.682Z,87.10
2017-09-03T23:42:32.518Z,87.90
2017-09-03T23:45:00.282Z,88.00
2017-09-03T23:47:28.149Z,89.00
2017-09-03T23:49:55.886Z,89.20
2017-09-03T23:52:23.615Z,88.80
2017-09-03T23:54:51.343Z,87.90
2017-09-03T23:57:19.063Z,85.40
2017-09-03T23:59:46.803Z,86.90
